sensor_id;sensor_type;location;lat;lon;timestamp;temperature;humidity
4306;DHT22;2166;49.926;8.608;2023-01-29T00:00:06;2.00;73.40
4306;DHT22;2166;49.926;8.608;2023-01-29T00:02:38;2.10;73.70
4306;DHT22;2166;49.926;8.608;2023-01-29T00:05:10;2.10;73.20
4306;DHT22;2166;49.926;8.608;2023-01-29T00:07:56;2.10;73.30
4306;DHT22;2166;49.926;8.608;2023-01-29T00:10:24;2.20;73.10
4306;DHT22;2166;49.926;8.608;2023-01-29T00:12:53;2.20;73.00
4306;DHT22;2166;49.926;8.608;2023-01-29T00:15:23;2.10;72.30
4306;DHT22;2166;49.926;8.608;2023-01-29T00:17:52;2.10;72.30
4306;DHT22;2166;49.926;8.608;2023-01-29T00:20:22;2.10;72.70
4306;DHT22;2166;49.926;8.608;2023-01-29T00:22:50;2.10;73.00
4306;DHT22;2166;49.926;8.608;2023-01-29T00:25:19;2.20;73.70
4306;DHT22;2166;49.926;8.608;2023-01-29T00:27:47;2.20;73.30
4306;DHT22;2166;49.926;8.608;2023-01-29T00:30:16;2.20;73.10
4306;DHT22;2166;49.926;8.608;2023-01-29T00:32:46;2.20;73.40
4306;DHT22;2166;49.926;8.608;2023-01-29T00:35:23;2.10;73.00
4306;DHT22;2166;49.926;8.608;2023-01-29T00:37:53;2.10;73.10
4306;DHT22;2166;49.926;8.608;2023-01-29T00:40:22;2.20;73.10
4306;DHT22;2166;49.926;8.608;2023-01-29T00:42:50;2.10;72.70
4306;DHT22;2166;49.926;8.608;2023-01-29T00:45:49;2.20;73.50
4306;DHT22;2166;49.926;8.608;2023-01-29T00:48:19;2.20;73.40
4306;DHT22;2166;49.926;8.608;2023-01-29T00:50:56;2.10;73.50
4306;DHT22;2166;49.926;8.608;2023-01-29T00:53:24;2.10;73.70
4306;DHT22;2166;49.926;8.608;2023-01-29T00:55:56;2.10;73.80
4306;DHT22;2166;49.926;8.608;2023-01-29T00:58:25;2.10;73.50
4306;DHT22;2166;49.926;8.608;2023-01-29T01:01:00;2.10;73.70
4306;DHT22;2166;49.926;8.608;2023-01-29T01:03:30;2.20;73.40
4306;DHT22;2166;49.926;8.608;2023-01-29T01:06:05;2.20;73.60
4306;DHT22;2166;49.926;8.608;2023-01-29T01:08:36;2.20;73.90
4306;DHT22;2166;49.926;8.608;2023-01-29T01:11:21;2.30;73.90
4306;DHT22;2166;49.926;8.608;2023-01-29T01:13:52;2.30;73.70
4306;DHT22;2166;49.926;8.608;2023-01-29T01:16:20;2.30;73.80
4306;DHT22;2166;49.926;8.608;2023-01-29T01:18:51;2.40;73.60
4306;DHT22;2166;49.926;8.608;2023-01-29T01:21:24;2.30;73.50
4306;DHT22;2166;49.926;8.608;2023-01-29T01:23:53;2.30;73.60
4306;DHT22;2166;49.926;8.608;2023-01-29T01:26:21;2.40;73.50
4306;DHT22;2166;49.926;8.608;2023-01-29T01:28:49;2.30;73.30
4306;DHT22;2166;49.926;8.608;2023-01-29T01:31:18;2.30;73.70
4306;DHT22;2166;49.926;8.608;2023-01-29T01:33:48;2.30;73.60
4306;DHT22;2166;49.926;8.608;2023-01-29T01:36:19;2.30;73.50
4306;DHT22;2166;49.926;8.608;2023-01-29T01:38:51;2.30;73.40
4306;DHT22;2166;49.926;8.608;2023-01-29T01:41:21;2.30;73.40
4306;DHT22;2166;49.926;8.608;2023-01-29T01:43:51;2.30;73.20
4306;DHT22;2166;49.926;8.608;2023-01-29T01:46:21;2.20;72.60
4306;DHT22;2166;49.926;8.608;2023-01-29T01:48:51;2.20;73.00
4306;DHT22;2166;49.926;8.608;2023-01-29T01:51:21;2.20;73.20
4306;DHT22;2166;49.926;8.608;2023-01-29T01:53:53;2.20;73.20
4306;DHT22;2166;49.926;8.608;2023-01-29T01:56:23;2.10;73.30
4306;DHT22;2166;49.926;8.608;2023-01-29T01:58:54;2.20;73.30
4306;DHT22;2166;49.926;8.608;2023-01-29T02:01:26;2.20;73.00
4306;DHT22;2166;49.926;8.608;2023-01-29T02:36:07;1.30;75.10
4306;DHT22;2166;49.926;8.608;2023-01-29T02:56:43;1.30;74.50
4306;DHT22;2166;49.926;8.608;2023-01-29T02:59:23;1.40;74.80
4306;DHT22;2166;49.926;8.608;2023-01-29T03:01:54;1.50;74.90
4306;DHT22;2166;49.926;8.608;2023-01-29T03:13:37;1.80;75.40
4306;DHT22;2166;49.926;8.608;2023-01-29T03:30:50;1.90;74.80
4306;DHT22;2166;49.926;8.608;2023-01-29T03:33:50;1.90;74.80
4306;DHT22;2166;49.926;8.608;2023-01-29T03:41:52;2.00;74.90
4306;DHT22;2166;49.926;8.608;2023-01-29T03:53:47;1.90;74.80
4306;DHT22;2166;49.926;8.608;2023-01-29T04:04:42;1.70;74.40
4306;DHT22;2166;49.926;8.608;2023-01-29T04:21:59;1.30;75.20
4306;DHT22;2166;49.926;8.608;2023-01-29T04:27:16;1.30;75.50
4306;DHT22;2166;49.926;8.608;2023-01-29T04:29:52;1.30;75.50
4306;DHT22;2166;49.926;8.608;2023-01-29T04:32:25;1.20;75.40
4306;DHT22;2166;49.926;8.608;2023-01-29T04:35:08;1.10;75.50
4306;DHT22;2166;49.926;8.608;2023-01-29T07:13:06;0.10;76.60
4306;DHT22;2166;49.926;8.608;2023-01-29T07:23:59;0.20;76.80
4306;DHT22;2166;49.926;8.608;2023-01-29T07:43:11;0.50;75.60
4306;DHT22;2166;49.926;8.608;2023-01-29T07:45:41;0.40;75.80
4306;DHT22;2166;49.926;8.608;2023-01-29T07:48:12;0.40;76.10
4306;DHT22;2166;49.926;8.608;2023-01-29T12:03:48;6.40;60.10
4306;DHT22;2166;49.926;8.608;2023-01-29T12:06:20;6.30;60.60
4306;DHT22;2166;49.926;8.608;2023-01-29T12:08:54;6.20;60.90
4306;DHT22;2166;49.926;8.608;2023-01-29T12:11:26;6.10;62.70
4306;DHT22;2166;49.926;8.608;2023-01-29T12:14:03;6.10;62.10
4306;DHT22;2166;49.926;8.608;2023-01-29T12:16:50;5.80;61.10
4306;DHT22;2166;49.926;8.608;2023-01-29T12:22:16;5.80;62.30
4306;DHT22;2166;49.926;8.608;2023-01-29T12:27:52;6.00;61.90
4306;DHT22;2166;49.926;8.608;2023-01-29T12:33:00;6.00;61.70
4306;DHT22;2166;49.926;8.608;2023-01-29T12:35:31;6.30;62.30
4306;DHT22;2166;49.926;8.608;2023-01-29T12:38:07;6.80;60.60
4306;DHT22;2166;49.926;8.608;2023-01-29T12:40:41;6.80;59.10
4306;DHT22;2166;49.926;8.608;2023-01-29T12:43:12;6.50;59.70
4306;DHT22;2166;49.926;8.608;2023-01-29T12:45:43;6.00;60.90
4306;DHT22;2166;49.926;8.608;2023-01-29T12:48:13;5.80;61.80
4306;DHT22;2166;49.926;8.608;2023-01-29T12:50:43;5.80;62.40
4306;DHT22;2166;49.926;8.608;2023-01-29T12:53:30;5.70;61.70
4306;DHT22;2166;49.926;8.608;2023-01-29T12:56:15;5.50;62.10
4306;DHT22;2166;49.926;8.608;2023-01-29T12:58:46;5.40;62.90
4306;DHT22;2166;49.926;8.608;2023-01-29T13:01:18;5.40;63.50
4306;DHT22;2166;49.926;8.608;2023-01-29T13:03:50;5.50;63.40
4306;DHT22;2166;49.926;8.608;2023-01-29T13:11:48;5.50;62.40
4306;DHT22;2166;49.926;8.608;2023-01-29T13:14:19;5.30;63.30
4306;DHT22;2166;49.926;8.608;2023-01-29T13:19:43;5.60;63.20
4306;DHT22;2166;49.926;8.608;2023-01-29T13:22:19;5.70;62.80
4306;DHT22;2166;49.926;8.608;2023-01-29T13:24:55;5.60;63.10
4306;DHT22;2166;49.926;8.608;2023-01-29T13:27:34;5.40;63.80
4306;DHT22;2166;49.926;8.608;2023-01-29T13:30:04;5.40;63.00
4306;DHT22;2166;49.926;8.608;2023-01-29T13:32:36;5.00;63.70
4306;DHT22;2166;49.926;8.608;2023-01-29T13:35:11;4.60;65.80
4306;DHT22;2166;49.926;8.608;2023-01-29T13:37:40;4.20;66.40
4306;DHT22;2166;49.926;8.608;2023-01-29T13:40:17;3.70;68.30
4306;DHT22;2166;49.926;8.608;2023-01-29T13:42:51;3.40;69.70
4306;DHT22;2166;49.926;8.608;2023-01-29T13:45:27;3.20;71.20
4306;DHT22;2166;49.926;8.608;2023-01-29T14:08:40;4.90;65.70
4306;DHT22;2166;49.926;8.608;2023-01-29T14:25:33;6.70;61.20
4306;DHT22;2166;49.926;8.608;2023-01-29T14:33:50;6.70;60.80
4306;DHT22;2166;49.926;8.608;2023-01-29T14:42:17;6.80;59.70
4306;DHT22;2166;49.926;8.608;2023-01-29T15:57:28;2.50;74.00
4306;DHT22;2166;49.926;8.608;2023-01-29T16:00:03;2.20;74.60
4306;DHT22;2166;49.926;8.608;2023-01-29T16:02:38;1.90;75.20
4306;DHT22;2166;49.926;8.608;2023-01-29T16:05:10;1.60;75.40
4306;DHT22;2166;49.926;8.608;2023-01-29T16:07:40;1.30;75.70
4306;DHT22;2166;49.926;8.608;2023-01-29T16:15:55;0.50;76.60
4306;DHT22;2166;49.926;8.608;2023-01-29T16:21:15;0.10;77.10
4306;DHT22;2166;49.926;8.608;2023-01-29T16:23:47;0.00;77.40
4306;DHT22;2166;49.926;8.608;2023-01-29T16:26:17;0.00;77.50
4306;DHT22;2166;49.926;8.608;2023-01-29T16:28:51;-0.10;77.80
4306;DHT22;2166;49.926;8.608;2023-01-29T16:34:17;-0.30;78.10
4306;DHT22;2166;49.926;8.608;2023-01-29T16:45:26;-0.50;78.90
4306;DHT22;2166;49.926;8.608;2023-01-29T16:56:33;-0.30;78.50
4306;DHT22;2166;49.926;8.608;2023-01-29T18:15:56;-1.50;81.10
4306;DHT22;2166;49.926;8.608;2023-01-29T18:18:28;-1.50;81.10
4306;DHT22;2166;49.926;8.608;2023-01-29T18:21:00;-1.50;81.20
4306;DHT22;2166;49.926;8.608;2023-01-29T18:23:33;-1.50;81.30
4306;DHT22;2166;49.926;8.608;2023-01-29T18:26:14;-1.50;81.40
4306;DHT22;2166;49.926;8.608;2023-01-29T18:28:45;-1.50;81.50
4306;DHT22;2166;49.926;8.608;2023-01-29T18:31:23;-1.50;81.50
4306;DHT22;2166;49.926;8.608;2023-01-29T18:33:56;-1.60;81.40
4306;DHT22;2166;49.926;8.608;2023-01-29T19:06:18;-1.60;81.80
4306;DHT22;2166;49.926;8.608;2023-01-29T19:08:59;-1.50;81.70
4306;DHT22;2166;49.926;8.608;2023-01-29T19:11:33;-1.50;81.70
4306;DHT22;2166;49.926;8.608;2023-01-29T19:14:05;-1.50;81.70
4306;DHT22;2166;49.926;8.608;2023-01-29T19:19:37;-1.60;81.60
4306;DHT22;2166;49.926;8.608;2023-01-29T20:30:45;-1.70;82.60
4306;DHT22;2166;49.926;8.608;2023-01-29T20:33:16;-1.70;82.70
4306;DHT22;2166;49.926;8.608;2023-01-29T20:35:56;-1.70;82.80
4306;DHT22;2166;49.926;8.608;2023-01-29T20:38:26;-1.70;82.90
4306;DHT22;2166;49.926;8.608;2023-01-29T20:54:51;-1.70;82.70
4306;DHT22;2166;49.926;8.608;2023-01-29T21:00:42;-1.70;82.80
4306;DHT22;2166;49.926;8.608;2023-01-29T21:05:47;-1.50;83.20
4306;DHT22;2166;49.926;8.608;2023-01-29T21:08:16;-1.40;83.00
4306;DHT22;2166;49.926;8.608;2023-01-29T21:10:50;-1.30;82.90
4306;DHT22;2166;49.926;8.608;2023-01-29T21:16:18;-1.20;82.90
4306;DHT22;2166;49.926;8.608;2023-01-29T21:19:22;-1.10;82.90
4306;DHT22;2166;49.926;8.608;2023-01-29T21:21:53;-1.00;82.70
4306;DHT22;2166;49.926;8.608;2023-01-29T21:24:24;-0.90;82.70
4306;DHT22;2166;49.926;8.608;2023-01-29T21:26:54;-0.90;82.40
4306;DHT22;2166;49.926;8.608;2023-01-29T21:29:23;-0.90;82.30
4306;DHT22;2166;49.926;8.608;2023-01-29T21:31:52;-0.80;82.30
4306;DHT22;2166;49.926;8.608;2023-01-29T21:34:21;-0.70;82.20
4306;DHT22;2166;49.926;8.608;2023-01-29T21:36:51;-0.70;82.20
4306;DHT22;2166;49.926;8.608;2023-01-29T21:39:22;-0.70;82.10
4306;DHT22;2166;49.926;8.608;2023-01-29T21:41:59;-0.70;82.20
4306;DHT22;2166;49.926;8.608;2023-01-29T21:44:53;-0.60;82.20
4306;DHT22;2166;49.926;8.608;2023-01-29T21:56:12;-0.30;81.40
4306;DHT22;2166;49.926;8.608;2023-01-29T22:37:07;-0.10;80.90
4306;DHT22;2166;49.926;8.608;2023-01-29T22:42:43;0.10;80.50
4306;DHT22;2166;49.926;8.608;2023-01-29T22:45:15;0.10;80.30
4306;DHT22;2166;49.926;8.608;2023-01-29T22:47:46;0.10;80.40
4306;DHT22;2166;49.926;8.608;2023-01-29T22:50:16;0.20;80.40
4306;DHT22;2166;49.926;8.608;2023-01-29T22:52:46;0.20;80.30
4306;DHT22;2166;49.926;8.608;2023-01-29T23:07:17;0.40;80.10
4306;DHT22;2166;49.926;8.608;2023-01-29T23:09:46;0.50;79.90
4306;DHT22;2166;49.926;8.608;2023-01-29T23:12:15;0.50;79.80
4306;DHT22;2166;49.926;8.608;2023-01-29T23:14:46;0.50;79.70
4306;DHT22;2166;49.926;8.608;2023-01-29T23:22:55;0.50;79.80
4306;DHT22;2166;49.926;8.608;2023-01-29T23:31:28;0.50;80.00
4306;DHT22;2166;49.926;8.608;2023-01-29T23:56:53;0.70;80.00
